Time;durP1;ratioP1;P1;durP2;ratioP2;P2;SDS_P1;SDS_P2;PMS_P1;PMS_P2;Temp;Humidity;BMP_temperature;BMP_pressure;BME280_temperature;BME280_humidity;BME280_pressure;Samples;Min_cycle;Max_cycle;Signal;HPM_P1;HPM_P2
2022/02/01 00:02:06;;;;;;;7.75;3.05;;;;;;;;;;1774463;79;21452;-56
2022/02/01 00:04:52;;;;;;;6.10;3.62;;;;;;;;;;1742106;81;22182;-57
2022/02/01 00:12:39;;;;;;;9.15;3.70;;;;;;;;;;1694352;81;21644;-54
2022/02/01 00:17:56;;;;;;;8.95;4.12;;;;;;;;;;1749192;80;22192;-56
2022/02/01 00:20:13;;;;;;;8.18;4.37;;;;;;;;;;1736015;81;21445;-55
2022/02/01 00:33:49;;;;;;;5.45;2.45;;;;;;;;;;1764780;79;21415;-57
2022/02/01 00:36:10;;;;;;;7.90;2.50;;;;;;;;;;1759395;79;24116;-56
2022/02/01 00:41:05;;;;;;;4.78;2.62;;;;;;;;;;1757630;80;21434;-56
2022/02/01 00:43:32;;;;;;;6.78;2.17;;;;;;;;;;1745183;80;22376;-57
2022/02/01 00:46:01;;;;;;;7.20;3.30;;;;;;;;;;1738581;80;21449;-57
2022/02/01 00:48:27;;;;;;;4.30;2.58;;;;;;;;;;1735146;80;23620;-57
2022/02/01 00:50:55;;;;;;;7.80;3.08;;;;;;;;;;1762913;80;21888;-57
2022/02/01 00:53:27;;;;;;;6.87;3.30;;;;;;;;;;1737268;80;21444;-56
2022/02/01 00:55:50;;;;;;;8.60;3.00;;;;;;;;;;1773117;79;22092;-58
2022/02/01 00:58:17;;;;;;;7.05;3.52;;;;;;;;;;1768746;79;21531;-57
2022/02/01 01:00:43;;;;;;;6.60;2.85;;;;;;;;;;1768496;79;23968;-57
2022/02/01 01:03:11;;;;;;;7.35;3.10;;;;;;;;;;1784102;79;21461;-56
2022/02/01 01:05:37;;;;;;;6.47;2.90;;;;;;;;;;1779605;79;21459;-57
2022/02/01 01:08:04;;;;;;;5.50;2.67;;;;;;;;;;1774296;79;21579;-57
2022/02/01 01:10:31;;;;;;;6.12;3.10;;;;;;;;;;1772781;79;21408;-58
2022/02/01 01:15:50;;;;;;;5.87;2.98;;;;;;;;;;1781142;79;21800;-57
2022/02/01 01:45:25;;;;;;;8.75;3.50;;;;;;;;;;1745777;80;20973;-57
2022/02/01 01:55:41;;;;;;;10.82;3.85;;;;;;;;;;1754675;80;21463;-58
2022/02/01 01:58:08;;;;;;;4.92;2.98;;;;;;;;;;1770264;80;21394;-57
2022/02/01 02:03:13;;;;;;;5.37;2.67;;;;;;;;;;1765129;80;20890;-57
2022/02/01 02:05:39;;;;;;;5.60;3.00;;;;;;;;;;1759832;80;22959;-57
2022/02/01 02:08:05;;;;;;;6.87;2.92;;;;;;;;;;1757668;80;21542;-56
2022/02/01 02:10:38;;;;;;;10.40;3.72;;;;;;;;;;1755876;80;21437;-58
2022/02/01 02:15:41;;;;;;;6.70;3.42;;;;;;;;;;1702732;80;20941;-58
2022/02/01 02:18:01;;;;;;;9.83;3.85;;;;;;;;;;1761139;79;23111;-58
2022/02/01 02:20:29;;;;;;;7.10;3.30;;;;;;;;;;1762857;79;21425;-57
2022/02/01 02:22:55;;;;;;;7.55;4.30;;;;;;;;;;1776518;79;21441;-58
2022/02/01 02:25:21;;;;;;;7.67;3.45;;;;;;;;;;1758404;80;21772;-57
2022/02/01 02:27:47;;;;;;;6.30;3.62;;;;;;;;;;1751584;80;20902;-57
2022/02/01 02:30:14;;;;;;;6.17;3.67;;;;;;;;;;1755806;79;23055;-58
2022/02/01 02:32:40;;;;;;;6.87;3.15;;;;;;;;;;1767287;79;21257;-57
2022/02/01 02:35:08;;;;;;;;;;;;;;;;;;1761399;79;20956;-57
2022/02/01 02:37:36;;;;;;;7.28;3.65;;;;;;;;;;1781579;79;21017;-57
2022/02/01 02:40:18;;;;;;;7.30;3.08;;;;;;;;;;1763671;79;21365;-58
2022/02/01 02:45:04;;;;;;;10.95;3.60;;;;;;;;;;1765935;79;23118;-57
2022/02/01 02:45:05;;;;;;;6.28;4.00;;;;;;;;;;1746597;79;21483;-56
2022/02/01 02:47:31;;;;;;;6.25;3.27;;;;;;;;;;1773492;79;21429;-57
2022/02/01 02:49:58;;;;;;;5.80;3.27;;;;;;;;;;1753892;79;21525;-57
2022/02/01 02:52:26;;;;;;;8.15;3.27;;;;;;;;;;1772070;79;21444;-57
2022/02/01 02:54:55;;;;;;;8.38;3.15;;;;;;;;;;1767429;79;23357;-56
2022/02/01 02:57:23;;;;;;;7.72;3.52;;;;;;;;;;1763506;79;22355;-57
2022/02/01 02:59:49;;;;;;;7.15;3.25;;;;;;;;;;1760615;79;20909;-57
2022/02/01 03:02:15;;;;;;;10.23;3.37;;;;;;;;;;1702292;82;21421;-57
2022/02/01 03:04:41;;;;;;;3.95;2.67;;;;;;;;;;1726149;82;21407;-57
2022/02/01 03:07:07;;;;;;;7.12;3.45;;;;;;;;;;1726073;81;23026;-57
2022/02/01 03:09:39;;;;;;;6.20;3.15;;;;;;;;;;1727371;81;21411;-58
2022/02/01 03:12:03;;;;;;;8.25;3.40;;;;;;;;;;1726440;81;21378;-56
2022/02/01 03:17:20;;;;;;;9.05;3.50;;;;;;;;;;1771473;79;21413;-57
2022/02/01 03:19:49;;;;;;;6.10;3.00;;;;;;;;;;1767032;79;21943;-58
2022/02/01 03:22:17;;;;;;;7.77;3.80;;;;;;;;;;1761199;79;21497;-58
2022/02/01 03:24:43;;;;;;;6.33;3.25;;;;;;;;;;1766631;79;21674;-58
2022/02/01 03:27:09;;;;;;;8.35;3.35;;;;;;;;;;1778418;79;21738;-58
2022/02/01 03:29:35;;;;;;;6.25;3.30;;;;;;;;;;1769187;79;22422;-58
2022/02/01 03:32:02;;;;;;;10.38;3.83;;;;;;;;;;1763936;79;23280;-57
2022/02/01 03:34:28;;;;;;;9.03;2.70;;;;;;;;;;1762627;79;21528;-57
2022/02/01 03:36:55;;;;;;;8.30;3.75;;;;;;;;;;1778639;79;21391;-57
2022/02/01 03:39:21;;;;;;;10.30;4.28;;;;;;;;;;1770123;79;21414;-57
2022/02/01 03:41:47;;;;;;;8.03;3.58;;;;;;;;;;1779398;79;21520;-57
2022/02/01 03:44:13;;;;;;;14.78;3.80;;;;;;;;;;1767641;79;22926;-58
2022/02/01 03:46:54;;;;;;;11.22;3.92;;;;;;;;;;1772988;79;21374;-57
2022/02/01 03:49:08;;;;;;;11.83;4.17;;;;;;;;;;1773414;79;20935;-57
2022/02/01 03:51:34;;;;;;;10.10;3.95;;;;;;;;;;1763449;79;21719;-57
2022/02/01 03:54:00;;;;;;;12.78;4.03;;;;;;;;;;1759751;79;21500;-57
2022/02/01 03:56:27;;;;;;;8.80;3.83;;;;;;;;;;1784019;79;23075;-57
2022/02/01 03:58:53;;;;;;;9.90;3.85;;;;;;;;;;1771657;79;21494;-57
2022/02/01 04:01:19;;;;;;;8.25;4.10;;;;;;;;;;1769229;79;21457;-56
2022/02/01 04:03:45;;;;;;;10.28;4.05;;;;;;;;;;1765987;79;21748;-57
2022/02/01 04:06:11;;;;;;;11.08;3.67;;;;;;;;;;1772010;79;21416;-57
2022/02/01 04:08:40;;;;;;;12.20;4.12;;;;;;;;;;1731825;81;22030;-57
2022/02/01 04:11:05;;;;;;;6.75;3.62;;;;;;;;;;1766040;79;21366;-57
2022/02/01 04:13:32;;;;;;;7.95;3.72;;;;;;;;;;1769516;79;21011;-58
2022/02/01 04:15:58;;;;;;;8.05;3.90;;;;;;;;;;1773032;79;21489;-56
2022/02/01 04:18:25;;;;;;;9.80;4.03;;;;;;;;;;1774016;79;21358;-56
2022/02/01 04:20:51;;;;;;;10.25;5.12;;;;;;;;;;1765880;79;23290;-56
2022/02/01 04:23:17;;;;;;;9.03;4.10;;;;;;;;;;1766005;79;22051;-57
2022/02/01 04:25:43;;;;;;;8.38;3.70;;;;;;;;;;1766485;79;21362;-55
2022/02/01 04:28:10;;;;;;;10.00;3.83;;;;;;;;;;1765558;79;21398;-57
2022/02/01 04:30:36;;;;;;;9.20;4.30;;;;;;;;;;1757748;79;21444;-57
2022/02/01 04:33:07;;;;;;;8.45;4.62;;;;;;;;;;1768705;80;23293;-56
2022/02/01 04:35:30;;;;;;;9.05;4.28;;;;;;;;;;1754461;80;21411;-57
2022/02/01 04:37:57;;;;;;;12.15;4.55;;;;;;;;;;1752717;80;20960;-57
2022/02/01 04:40:24;;;;;;;12.23;5.37;;;;;;;;;;1740570;81;21715;-57
2022/02/01 04:42:51;;;;;;;13.22;4.58;;;;;;;;;;1750877;81;21430;-57
2022/02/01 04:45:19;;;;;;;11.25;4.92;;;;;;;;;;1739260;81;23262;-56
2022/02/01 04:47:46;;;;;;;10.65;5.10;;;;;;;;;;1735479;81;21326;-57
2022/02/01 04:50:14;;;;;;;12.43;5.47;;;;;;;;;;1724341;82;21394;-57
2022/02/01 04:52:41;;;;;;;10.53;5.05;;;;;;;;;;1765058;79;21716;-56
2022/02/01 04:55:08;;;;;;;10.45;4.50;;;;;;;;;;1751014;80;21446;-56
2022/02/01 04:57:36;;;;;;;11.53;4.90;;;;;;;;;;1750742;80;23030;-57
2022/02/01 05:00:02;;;;;;;7.47;4.37;;;;;;;;;;1731484;81;21930;-56
2022/02/01 05:02:28;;;;;;;10.08;5.60;;;;;;;;;;1744716;81;21474;-57
2022/02/01 05:04:55;;;;;;;9.08;3.83;;;;;;;;;;1736056;81;21636;-56
2022/02/01 05:07:22;;;;;;;11.12;5.67;;;;;;;;;;1741431;81;21370;-57
2022/02/01 05:09:48;;;;;;;10.43;4.40;;;;;;;;;;1731291;81;23142;-57
2022/02/01 05:12:16;;;;;;;12.68;4.72;;;;;;;;;;1739166;81;21531;-57
2022/02/01 05:14:42;;;;;;;8.75;4.45;;;;;;;;;;1732165;81;21378;-57
2022/02/01 05:17:08;;;;;;;11.90;4.17;;;;;;;;;;1747871;81;21521;-56
2022/02/01 05:22:08;;;;;;;10.55;4.87;;;;;;;;;;1740900;81;22999;-57
2022/02/01 05:24:36;;;;;;;13.38;5.05;;;;;;;;;;1727054;81;21550;-58
2022/02/01 05:28:31;;;;;;;9.45;5.20;;;;;;;;;;1791491;78;22926;-57
2022/02/01 05:31:02;;;;;;;13.00;5.60;;;;;;;;;;1768746;79;20974;-57
2022/02/01 05:33:25;;;;;;;8.95;5.42;;;;;;;;;;1770033;80;23362;-57
2022/02/01 05:35:51;;;;;;;10.90;5.05;;;;;;;;;;1775427;80;21582;-58
2022/02/01 05:38:18;;;;;;;12.55;4.95;;;;;;;;;;1777170;80;21410;-58
2022/02/01 05:40:44;;;;;;;12.77;5.83;;;;;;;;;;1772197;80;21375;-57
2022/02/01 05:43:16;;;;;;;9.73;5.33;;;;;;;;;;1777328;80;21680;-58
2022/02/01 05:45:42;;;;;;;13.68;5.28;;;;;;;;;;1774939;80;23047;-58
2022/02/01 05:48:11;;;;;;;18.37;5.53;;;;;;;;;;1776553;80;21454;-55
2022/02/01 05:50:38;;;;;;;14.63;5.50;;;;;;;;;;1776087;80;21548;-57
2022/02/01 05:53:06;;;;;;;15.58;5.70;;;;;;;;;;1768426;80;21493;-57
2022/02/01 05:55:34;;;;;;;10.75;5.42;;;;;;;;;;1777160;80;21360;-57
2022/02/01 05:58:01;;;;;;;16.02;5.80;;;;;;;;;;1764327;80;23010;-57
2022/02/01 06:00:28;;;;;;;9.95;5.25;;;;;;;;;;1773781;80;21399;-57
2022/02/01 06:02:54;;;;;;;15.55;5.70;;;;;;;;;;1773056;79;21466;-57
2022/02/01 06:05:20;;;;;;;15.30;5.62;;;;;;;;;;1775899;79;21363;-57
2022/02/01 06:07:46;;;;;;;11.97;5.53;;;;;;;;;;1768841;80;21383;-57
2022/02/01 06:10:13;;;;;;;11.25;5.17;;;;;;;;;;1771740;80;22068;-58
2022/02/01 06:12:40;;;;;;;12.20;5.37;;;;;;;;;;1771930;80;21563;-57
2022/02/01 06:15:08;;;;;;;14.43;6.53;;;;;;;;;;1774915;80;20958;-57
2022/02/01 06:17:34;;;;;;;16.75;6.10;;;;;;;;;;1776537;79;21342;-57
2022/02/01 06:20:02;;;;;;;13.58;6.37;;;;;;;;;;1775747;80;20934;-57
2022/02/01 06:22:29;;;;;;;13.98;5.75;;;;;;;;;;1770912;80;23038;-57
2022/02/01 06:24:56;;;;;;;12.82;5.67;;;;;;;;;;1776632;80;21218;-57
2022/02/01 06:27:22;;;;;;;13.40;6.10;;;;;;;;;;1768744;80;21376;-58
2022/02/01 06:29:49;;;;;;;14.63;5.62;;;;;;;;;;1753739;80;21380;-57
2022/02/01 06:32:16;;;;;;;13.25;6.17;;;;;;;;;;1743453;81;21473;-57
2022/02/01 06:34:42;;;;;;;14.73;5.92;;;;;;;;;;1753088;81;22997;-57
2022/02/01 06:37:08;;;;;;;14.07;6.40;;;;;;;;;;1748801;81;21443;-57
2022/02/01 06:39:34;;;;;;;12.07;6.78;;;;;;;;;;1748625;80;20863;-57
2022/02/01 06:42:00;;;;;;;13.60;6.87;;;;;;;;;;1741047;81;21419;-58
2022/02/01 06:44:26;;;;;;;13.45;6.35;;;;;;;;;;1712871;81;20989;-56
2022/02/01 06:46:52;;;;;;;11.83;5.50;;;;;;;;;;1751727;81;21629;-57
2022/02/01 06:49:19;;;;;;;13.85;5.75;;;;;;;;;;1750853;81;21850;-58
2022/02/01 06:51:45;;;;;;;12.65;6.10;;;;;;;;;;1752279;80;21047;-56
2022/02/01 06:54:12;;;;;;;12.90;5.65;;;;;;;;;;1752152;81;21371;-57
2022/02/01 06:56:38;;;;;;;13.93;6.40;;;;;;;;;;1742890;80;20993;-56
2022/02/01 06:59:04;;;;;;;12.00;5.58;;;;;;;;;;1748472;81;23356;-56
2022/02/01 07:01:31;;;;;;;10.65;5.17;;;;;;;;;;1756036;80;21525;-57
2022/02/01 07:03:57;;;;;;;12.07;5.35;;;;;;;;;;1757442;79;21469;-58
2022/02/01 07:06:23;;;;;;;14.00;5.35;;;;;;;;;;1750252;81;21574;-58
2022/02/01 07:08:49;;;;;;;11.85;5.08;;;;;;;;;;1748010;79;21486;-58
2022/02/01 07:11:16;;;;;;;12.18;5.20;;;;;;;;;;1749670;79;22032;-56
2022/02/01 07:13:43;;;;;;;8.68;4.55;;;;;;;;;;1755668;79;21463;-56
2022/02/01 07:16:09;;;;;;;12.78;5.50;;;;;;;;;;1752388;79;21533;-58
2022/02/01 07:18:35;;;;;;;13.20;5.17;;;;;;;;;;1751632;81;21407;-56
2022/02/01 07:21:03;;;;;;;11.05;4.97;;;;;;;;;;1755458;81;21329;-57
2022/02/01 07:23:30;;;;;;;10.98;5.30;;;;;;;;;;1755567;81;23006;-56
2022/02/01 07:25:56;;;;;;;9.85;4.97;;;;;;;;;;1753067;81;21416;-57
2022/02/01 07:28:23;;;;;;;11.65;5.47;;;;;;;;;;1750802;80;21505;-57
2022/02/01 07:30:49;;;;;;;10.05;4.78;;;;;;;;;;1761415;79;21565;-58
2022/02/01 07:33:15;;;;;;;10.78;5.33;;;;;;;;;;1754305;79;21696;-58
2022/02/01 07:35:42;;;;;;;11.90;5.83;;;;;;;;;;1758075;79;23046;-57
2022/02/01 07:38:10;;;;;;;14.33;5.58;;;;;;;;;;1755003;79;21502;-56
2022/02/01 07:40:37;;;;;;;11.63;5.33;;;;;;;;;;1756626;79;21460;-57
2022/02/01 07:43:03;;;;;;;16.48;5.65;;;;;;;;;;1754958;80;21565;-58
2022/02/01 07:45:30;;;;;;;12.37;5.50;;;;;;;;;;1759661;80;21356;-57
2022/02/01 07:47:57;;;;;;;13.55;5.95;;;;;;;;;;1751066;80;23057;-58
2022/02/01 07:50:24;;;;;;;12.25;5.25;;;;;;;;;;1762414;79;21550;-59
2022/02/01 07:52:50;;;;;;;13.25;5.67;;;;;;;;;;1761700;80;21434;-56
2022/02/01 07:55:16;;;;;;;14.55;5.85;;;;;;;;;;1739887;80;21529;-58
2022/02/01 07:57:44;;;;;;;12.55;5.53;;;;;;;;;;1762413;80;20996;-58
2022/02/01 08:00:10;;;;;;;8.85;5.40;;;;;;;;;;1762332;79;23119;-58
2022/02/01 08:02:38;;;;;;;10.68;5.53;;;;;;;;;;1762153;80;21435;-57
2022/02/01 08:05:04;;;;;;;16.90;6.20;;;;;;;;;;1738187;80;21551;-57
2022/02/01 08:07:31;;;;;;;12.20;6.33;;;;;;;;;;1761011;80;21441;-57
2022/02/01 08:10:04;;;;;;;13.95;6.08;;;;;;;;;;1762282;80;21419;-57
2022/02/01 08:13:07;;;;;;;13.65;6.25;;;;;;;;;;1762065;80;22979;-58
2022/02/01 08:20:24;;;;;;;11.70;5.90;;;;;;;;;;1756836;80;21501;-58
2022/02/01 08:25:13;;;;;;;13.28;5.90;;;;;;;;;;1761868;80;22501;-59
2022/02/01 08:27:39;;;;;;;16.02;6.72;;;;;;;;;;1758258;80;21591;-58
2022/02/01 08:30:06;;;;;;;13.30;6.60;;;;;;;;;;1765697;80;21601;-57
2022/02/01 08:32:32;;;;;;;14.60;6.00;;;;;;;;;;1769489;79;21498;-59
2022/02/01 08:34:58;;;;;;;13.03;6.17;;;;;;;;;;1766755;79;21533;-58
2022/02/01 08:37:24;;;;;;;14.00;5.95;;;;;;;;;;1767357;79;23333;-57
2022/02/01 08:39:50;;;;;;;10.78;5.70;;;;;;;;;;1771836;79;21461;-57
2022/02/01 08:42:17;;;;;;;14.25;6.10;;;;;;;;;;1771075;79;21441;-57
2022/02/01 08:44:44;;;;;;;14.55;7.05;;;;;;;;;;1766313;80;21442;-57
2022/02/01 08:47:11;;;;;;;15.20;6.10;;;;;;;;;;1763965;79;21433;-59
2022/02/01 08:49:37;;;;;;;12.63;5.97;;;;;;;;;;1761530;80;23353;-59
2022/02/01 08:52:08;;;;;;;12.15;6.00;;;;;;;;;;1769233;79;21389;-56
2022/02/01 08:54:36;;;;;;;15.68;6.47;;;;;;;;;;1761584;80;21454;-58
2022/02/01 08:57:21;;;;;;;14.23;6.72;;;;;;;;;;1767833;80;21628;-58
2022/02/01 08:59:48;;;;;;;12.00;6.40;;;;;;;;;;1764596;79;21485;-58
2022/02/01 09:02:20;;;;;;;12.88;6.62;;;;;;;;;;1767946;80;23029;-58
2022/02/01 09:04:46;;;;;;;14.58;6.80;;;;;;;;;;1758865;80;21875;-58
2022/02/01 09:07:12;;;;;;;14.00;6.37;;;;;;;;;;1764159;79;21450;-58
2022/02/01 09:09:38;;;;;;;13.98;6.60;;;;;;;;;;1762224;80;21573;-58
2022/02/01 09:12:05;;;;;;;14.53;6.33;;;;;;;;;;1768747;80;21430;-59
2022/02/01 09:14:31;;;;;;;12.37;6.83;;;;;;;;;;1761367;79;23031;-58
2022/02/01 09:17:00;;;;;;;17.05;7.35;;;;;;;;;;1765296;80;21886;-57
2022/02/01 09:19:25;;;;;;;14.93;7.20;;;;;;;;;;1768048;80;20937;-59
2022/02/01 09:21:51;;;;;;;13.40;6.70;;;;;;;;;;1764667;79;21462;-56
2022/02/01 09:24:18;;;;;;;14.20;7.17;;;;;;;;;;1758987;80;21391;-58
2022/02/01 09:26:45;;;;;;;12.73;6.53;;;;;;;;;;1767204;80;22044;-59
2022/02/01 09:29:11;;;;;;;19.32;6.42;;;;;;;;;;1764004;80;21508;-57
2022/02/01 09:31:37;;;;;;;9.75;6.20;;;;;;;;;;1761501;80;21438;-59
2022/02/01 09:34:04;;;;;;;14.58;5.92;;;;;;;;;;1761669;80;21490;-58
2022/02/01 09:36:31;;;;;;;16.87;6.60;;;;;;;;;;1749814;80;21442;-57
2022/02/01 09:38:58;;;;;;;11.22;5.97;;;;;;;;;;1762899;80;23439;-58
2022/02/01 09:41:24;;;;;;;11.90;6.00;;;;;;;;;;1748594;80;21569;-59
2022/02/01 09:43:52;;;;;;;10.80;5.53;;;;;;;;;;1760844;80;21420;-59
2022/02/01 09:46:18;;;;;;;14.20;6.20;;;;;;;;;;1759739;80;21450;-60
2022/02/01 09:48:45;;;;;;;10.58;5.90;;;;;;;;;;1754976;79;21470;-59
2022/02/01 09:51:11;;;;;;;17.83;7.80;;;;;;;;;;1757018;80;23020;-59
2022/02/01 09:53:38;;;;;;;10.55;6.25;;;;;;;;;;1760365;80;21446;-58
2022/02/01 09:56:04;;;;;;;11.08;5.67;;;;;;;;;;1754505;80;21573;-60
2022/02/01 09:58:32;;;;;;;13.00;5.75;;;;;;;;;;1762369;80;21448;-60
2022/02/01 10:01:01;;;;;;;12.00;6.17;;;;;;;;;;1763354;80;20941;-57
2022/02/01 10:03:27;;;;;;;12.47;6.53;;;;;;;;;;1762228;80;22407;-59
2022/02/01 10:05:58;;;;;;;10.88;6.05;;;;;;;;;;1753230;80;21583;-57
2022/02/01 10:08:25;;;;;;;12.30;6.55;;;;;;;;;;1757780;80;20966;-59
2022/02/01 10:10:53;;;;;;;14.68;6.33;;;;;;;;;;1760529;80;21769;-60
2022/02/01 10:13:21;;;;;;;10.65;5.90;;;;;;;;;;1759872;79;21466;-59
2022/02/01 10:15:56;;;;;;;13.08;6.12;;;;;;;;;;1762230;79;22037;-59
2022/02/01 10:18:26;;;;;;;11.78;5.72;;;;;;;;;;1758438;80;21415;-57
2022/02/01 10:20:54;;;;;;;10.20;5.80;;;;;;;;;;1760813;80;21470;-59
2022/02/01 10:23:24;;;;;;;9.98;5.70;;;;;;;;;;1761349;79;21740;-60
2022/02/01 10:25:59;;;;;;;11.03;5.75;;;;;;;;;;1761506;80;21432;-59
2022/02/01 10:28:28;;;;;;;8.78;5.50;;;;;;;;;;1758745;80;23374;-58
2022/02/01 10:30:53;;;;;;;10.23;5.42;;;;;;;;;;1769467;80;21458;-58
2022/02/01 10:33:54;;;;;;;10.38;5.33;;;;;;;;;;1775182;79;21517;-56
2022/02/01 10:35:59;;;;;;;14.03;5.92;;;;;;;;;;1763413;80;21422;-58
2022/02/01 10:38:32;;;;;;;12.60;6.42;;;;;;;;;;1766725;80;21410;-58
2022/02/01 10:40:59;;;;;;;12.55;5.72;;;;;;;;;;1767276;79;23324;-58
2022/02/01 10:43:26;;;;;;;12.25;6.10;;;;;;;;;;1764060;79;21244;-56
2022/02/01 10:45:53;;;;;;;12.82;6.50;;;;;;;;;;1765728;80;21447;-59
2022/02/01 10:48:20;;;;;;;14.83;5.80;;;;;;;;;;1769298;79;21451;-57
2022/02/01 10:50:48;;;;;;;13.48;6.05;;;;;;;;;;1759738;79;25983;-59
2022/02/01 10:53:19;;;;;;;9.60;6.20;;;;;;;;;;1762068;79;23421;-58
2022/02/01 10:55:46;;;;;;;11.68;6.35;;;;;;;;;;1766399;79;21513;-58
2022/02/01 10:58:12;;;;;;;13.22;5.97;;;;;;;;;;1767866;79;21537;-61
2022/02/01 11:00:38;;;;;;;11.97;6.05;;;;;;;;;;1766833;79;21494;-58
2022/02/01 11:03:04;;;;;;;11.93;5.67;;;;;;;;;;1758824;79;21483;-59
2022/02/01 11:05:31;;;;;;;10.80;5.22;;;;;;;;;;1769105;80;23397;-60
2022/02/01 11:07:57;;;;;;;11.85;5.40;;;;;;;;;;1763399;79;21447;-59
2022/02/01 11:10:23;;;;;;;10.25;5.15;;;;;;;;;;1762242;79;21458;-60
2022/02/01 11:12:50;;;;;;;14.28;6.10;;;;;;;;;;1767564;80;21495;-60
2022/02/01 11:15:18;;;;;;;10.58;6.28;;;;;;;;;;1770090;79;21461;-60
2022/02/01 11:17:46;;;;;;;13.18;6.47;;;;;;;;;;1763916;79;23355;-59
2022/02/01 11:20:13;;;;;;;10.85;5.72;;;;;;;;;;1757654;79;21653;-59
2022/02/01 11:22:42;;;;;;;10.08;6.42;;;;;;;;;;1759384;79;21478;-57
2022/02/01 11:25:20;;;;;;;8.85;5.75;;;;;;;;;;1768732;79;21575;-60
2022/02/01 11:27:46;;;;;;;11.43;6.22;;;;;;;;;;1767069;79;21536;-60
2022/02/01 11:30:12;;;;;;;14.03;6.03;;;;;;;;;;1758574;79;22994;-60
2022/02/01 11:32:52;;;;;;;16.60;6.53;;;;;;;;;;1758858;79;21431;-60
2022/02/01 11:35:22;;;;;;;10.38;6.12;;;;;;;;;;1765820;79;21442;-58
2022/02/01 11:37:49;;;;;;;7.92;4.75;;;;;;;;;;1761058;79;21426;-59
2022/02/01 11:40:15;;;;;;;10.03;5.08;;;;;;;;;;1759467;79;21494;-56
2022/02/01 11:42:45;;;;;;;7.90;4.72;;;;;;;;;;1757117;80;23029;-59
2022/02/01 11:45:11;;;;;;;7.22;4.67;;;;;;;;;;1754152;79;21482;-59
2022/02/01 11:47:38;;;;;;;10.32;5.25;;;;;;;;;;1757711;79;21584;-57
2022/02/01 11:50:11;;;;;;;13.75;5.42;;;;;;;;;;1760103;79;21521;-59
2022/02/01 11:52:42;;;;;;;7.70;4.80;;;;;;;;;;1758968;80;20992;-58
2022/02/01 11:55:08;;;;;;;12.85;5.85;;;;;;;;;;1753313;80;23037;-56
2022/02/01 11:57:37;;;;;;;8.17;5.30;;;;;;;;;;1757179;80;21449;-57
2022/02/01 12:00:07;;;;;;;9.60;5.72;;;;;;;;;;1758000;80;21784;-58
2022/02/01 12:02:38;;;;;;;11.15;5.70;;;;;;;;;;1767922;79;21509;-56
2022/02/01 12:05:04;;;;;;;8.08;5.00;;;;;;;;;;1760397;79;21450;-57
2022/02/01 12:07:33;;;;;;;9.93;4.95;;;;;;;;;;1754890;79;23003;-59
2022/02/01 12:10:01;;;;;;;12.85;5.45;;;;;;;;;;1729055;80;21221;-57
2022/02/01 12:12:27;;;;;;;11.05;5.10;;;;;;;;;;1750900;80;21496;-57
2022/02/01 12:14:56;;;;;;;9.73;5.62;;;;;;;;;;1750904;80;21669;-57
2022/02/01 12:17:23;;;;;;;9.03;4.87;;;;;;;;;;1754077;80;20987;-58
2022/02/01 12:19:51;;;;;;;9.88;5.47;;;;;;;;;;1743422;79;22969;-59
2022/02/01 12:22:28;;;;;;;10.98;5.50;;;;;;;;;;1757043;80;21581;-58
2022/02/01 12:25:08;;;;;;;13.05;6.55;;;;;;;;;;1755625;79;21489;-58
2022/02/01 12:27:36;;;;;;;9.88;5.40;;;;;;;;;;1759368;79;22458;-56
2022/02/01 12:30:03;;;;;;;11.10;5.25;;;;;;;;;;1759984;79;21614;-59
2022/02/01 12:32:30;;;;;;;8.73;5.35;;;;;;;;;;1760868;79;23075;-57
2022/02/01 12:34:57;;;;;;;8.68;4.87;;;;;;;;;;1757889;79;21475;-59
2022/02/01 12:37:23;;;;;;;7.57;4.83;;;;;;;;;;1759343;79;21465;-60
2022/02/01 12:40:10;;;;;;;9.55;4.65;;;;;;;;;;1760053;79;21462;-59
2022/02/01 12:42:43;;;;;;;9.28;4.65;;;;;;;;;;1759879;79;21016;-60
2022/02/01 12:47:51;;;;;;;10.18;5.00;;;;;;;;;;1690826;82;21518;-58
2022/02/01 12:50:17;;;;;;;9.00;4.37;;;;;;;;;;1694186;83;21627;-59
2022/02/01 12:52:43;;;;;;;8.13;4.80;;;;;;;;;;1692240;83;21465;-59
2022/02/01 12:55:10;;;;;;;7.80;4.62;;;;;;;;;;1759659;80;21399;-58
2022/02/01 12:57:37;;;;;;;11.97;5.20;;;;;;;;;;1758836;79;23128;-58
2022/02/01 13:00:04;;;;;;;6.12;4.15;;;;;;;;;;1757846;79;21450;-59
2022/02/01 13:02:32;;;;;;;8.08;3.17;;;;;;;;;;1758702;79;21406;-60
2022/02/01 13:04:59;;;;;;;5.55;3.55;;;;;;;;;;1759881;79;21439;-58
2022/02/01 13:07:49;;;;;;;6.15;3.25;;;;;;;;;;1758150;80;21487;-59
2022/02/01 13:13:19;;;;;;;5.25;3.52;;;;;;;;;;1746538;80;21436;-59
2022/02/01 13:18:12;;;;;;;7.20;2.72;;;;;;;;;;1756142;80;21782;-57
2022/02/01 13:20:27;;;;;;;4.33;2.90;;;;;;;;;;1755843;80;21611;-59
2022/02/01 13:22:54;;;;;;;5.42;2.85;;;;;;;;;;1758475;80;22991;-58
2022/02/01 13:25:20;;;;;;;;;;;;;;;;;;1762794;80;21400;-59
2022/02/01 13:27:48;;;;;;;5.33;3.30;;;;;;;;;;1758275;80;20784;-59
2022/02/01 13:30:15;;;;;;;4.95;3.02;;;;;;;;;;1744622;80;21407;-59
2022/02/01 13:32:42;;;;;;;5.47;3.40;;;;;;;;;;1754734;80;21645;-58
2022/02/01 13:35:09;;;;;;;5.92;3.30;;;;;;;;;;1747987;80;23064;-59
2022/02/01 13:37:36;;;;;;;4.92;3.12;;;;;;;;;;1755118;80;21458;-59
2022/02/01 13:40:03;;;;;;;4.22;2.92;;;;;;;;;;1755266;80;21065;-59
2022/02/01 13:42:30;;;;;;;3.90;2.67;;;;;;;;;;1757083;79;21593;-59
2022/02/01 13:44:58;;;;;;;4.55;2.62;;;;;;;;;;1745255;80;21607;-59
2022/02/01 13:47:37;;;;;;;6.28;2.87;;;;;;;;;;1756863;80;21657;-59
2022/02/01 13:50:05;;;;;;;5.75;3.00;;;;;;;;;;1757938;80;21436;-59
2022/02/01 13:52:31;;;;;;;;;;;;;;;;;;1757065;80;21447;-59
2022/02/01 13:54:58;;;;;;;4.25;2.50;;;;;;;;;;1750245;80;20815;-59
2022/02/01 13:57:25;;;;;;;3.70;1.70;;;;;;;;;;1758455;80;21430;-60
2022/02/01 13:59:52;;;;;;;6.42;2.70;;;;;;;;;;1753912;80;21983;-59
2022/02/01 14:02:29;;;;;;;3.70;2.50;;;;;;;;;;1727245;80;21491;-60
2022/02/01 14:04:55;;;;;;;5.17;3.10;;;;;;;;;;1751710;79;21474;-59
2022/02/01 14:07:37;;;;;;;6.87;3.80;;;;;;;;;;1762104;79;21802;-58
2022/02/01 14:25:29;;;;;;;11.63;6.90;;;;;;;;;;1677561;83;21493;-59
2022/02/01 14:36:26;;;;;;;6.15;3.00;;;;;;;;;;1685875;83;20957;-59
2022/02/01 14:39:11;;;;;;;4.20;2.55;;;;;;;;;;1685224;83;22928;-59
2022/02/01 14:47:00;;;;;;;4.83;2.55;;;;;;;;;;1652826;84;22242;-57
2022/02/01 14:49:27;;;;;;;5.03;3.27;;;;;;;;;;1684085;83;21500;-59
2022/02/01 14:51:53;;;;;;;12.75;5.80;;;;;;;;;;1685494;83;23335;-59
2022/02/01 14:54:27;;;;;;;12.05;5.35;;;;;;;;;;1689933;83;21603;-59
2022/02/01 14:56:51;;;;;;;7.28;4.83;;;;;;;;;;1683774;83;21511;-59
2022/02/01 15:12:49;;;;;;;6.20;3.63;;;;;;;;;;1683056;83;21499;-57
2022/02/01 15:14:54;;;;;;;7.08;4.45;;;;;;;;;;1654570;84;21721;-57
2022/02/01 15:17:20;;;;;;;5.12;2.90;;;;;;;;;;1662036;84;23357;-59
2022/02/01 15:19:46;;;;;;;6.85;3.15;;;;;;;;;;1635259;85;21984;-59
2022/02/01 15:22:13;;;;;;;4.45;3.27;;;;;;;;;;1664882;84;21482;-58
2022/02/01 15:24:39;;;;;;;6.03;3.37;;;;;;;;;;1633829;86;21445;-58
2022/02/01 15:27:05;;;;;;;5.25;3.35;;;;;;;;;;1665739;84;21250;-57
2022/02/01 15:29:32;;;;;;;6.95;3.87;;;;;;;;;;1661637;84;23030;-59
2022/02/01 15:31:58;;;;;;;6.25;3.72;;;;;;;;;;1664952;84;21533;-57
2022/02/01 15:34:30;;;;;;;7.95;4.50;;;;;;;;;;1666965;84;20970;-58
2022/02/01 15:36:52;;;;;;;9.68;6.92;;;;;;;;;;1633752;85;22010;-58
2022/02/01 15:58:08;;;;;;;13.62;7.83;;;;;;;;;;1661497;84;21571;-59
2022/02/01 16:00:37;;;;;;;18.32;9.93;;;;;;;;;;1661690;84;21489;-59
2022/02/01 16:03:09;;;;;;;;;;;;;;;;;;1664489;84;21529;-59
2022/02/01 16:05:31;;;;;;;12.95;7.72;;;;;;;;;;1661894;84;20435;-59
2022/02/01 16:07:57;;;;;;;6.78;3.90;;;;;;;;;;1661636;85;22792;-60
2022/02/01 16:10:35;;;;;;;6.20;3.25;;;;;;;;;;1662498;84;21213;-55
2022/02/01 16:13:02;;;;;;;4.25;2.50;;;;;;;;;;1659920;84;20973;-59
2022/02/01 16:15:22;;;;;;;6.10;2.35;;;;;;;;;;1622994;85;21494;-60
2022/02/01 16:17:50;;;;;;;4.17;2.80;;;;;;;;;;1648846;85;20982;-59
2022/02/01 16:20:16;;;;;;;5.28;2.35;;;;;;;;;;1622962;86;22015;-59
2022/02/01 16:22:44;;;;;;;4.47;2.95;;;;;;;;;;1684349;84;21097;-60
2022/02/01 16:25:10;;;;;;;5.83;2.90;;;;;;;;;;1685347;83;21531;-60
2022/02/01 16:27:37;;;;;;;4.87;2.80;;;;;;;;;;1695376;83;21185;-58
2022/02/01 16:30:07;;;;;;;5.00;2.83;;;;;;;;;;1687113;83;21546;-58
2022/02/01 16:32:34;;;;;;;6.85;2.92;;;;;;;;;;1679400;83;22353;-58
2022/02/01 16:35:00;;;;;;;6.65;2.98;;;;;;;;;;1693929;83;21486;-58
2022/02/01 16:37:26;;;;;;;5.20;2.65;;;;;;;;;;1693528;83;21439;-57
2022/02/01 16:39:52;;;;;;;7.42;3.00;;;;;;;;;;1649391;86;21517;-59
2022/02/01 16:42:20;;;;;;;5.75;2.90;;;;;;;;;;1686881;83;21060;-58
2022/02/01 16:44:47;;;;;;;12.20;6.47;;;;;;;;;;1687086;83;22360;-59
2022/02/01 16:47:14;;;;;;;7.65;5.00;;;;;;;;;;1657748;85;21563;-59
2022/02/01 16:49:40;;;;;;;7.28;3.77;;;;;;;;;;1685732;83;26282;-58
2022/02/01 16:52:13;;;;;;;7.50;4.15;;;;;;;;;;1683826;83;21539;-58
2022/02/01 16:54:44;;;;;;;8.10;4.60;;;;;;;;;;1683323;83;21626;-57
2022/02/01 16:57:10;;;;;;;9.40;5.17;;;;;;;;;;1684579;83;21574;-58
2022/02/01 16:59:36;;;;;;;11.88;5.55;;;;;;;;;;1682203;83;21523;-58
2022/02/01 17:01:59;;;;;;;8.43;5.70;;;;;;;;;;1681916;83;21567;-58
2022/02/01 17:04:26;;;;;;;8.65;4.35;;;;;;;;;;1684498;83;20991;-58
2022/02/01 17:06:52;;;;;;;10.65;5.60;;;;;;;;;;1649971;85;21648;-58
2022/02/01 17:09:19;;;;;;;15.55;8.35;;;;;;;;;;1684534;83;21590;-58